Terminal Aerodrome Forecast
Issued by NWS Grand Forks, ND

Home | Current Version | Previous Version | Graphics & Text | Print | Product List | Glossary On
Versions: 1 2 3 4 5 6 7 8 9 10 11 12 13 14 15 16 17 18
000
FTUS43 KFGF 080522
TAFFAR
TAF
KFAR 080522Z 0806/0906 32007KT P6SM BKN090
     FM081800 29014KT P6SM BKN040
     FM082200 32018G28KT 6SM BLSN BKN050=

USA.gov is the U.S. government's official web portal to all federal, state and local government web resources and services.